Time;durP1;ratioP1;P1;durP2;ratioP2;P2;SDS_P1;SDS_P2;PMS_P1;PMS_P2;Temp;Humidity;BMP_temperature;BMP_pressure;BME280_temperature;BME280_humidity;BME280_pressure;Samples;Min_cycle;Max_cycle;Signal;HPM_P1;HPM_P2
2021/11/13 00:00:00;;;;;;;14.20;11.10;;;7.90;99.90;;;;;;5018091;28;20982;-73
2021/11/13 00:02:25;;;;;;;16.60;12.20;;;7.80;99.90;;;;;;5009056;28;20415;-73
2021/11/13 00:04:51;;;;;;;16.87;11.93;;;7.70;99.90;;;;;;4997390;28;20175;-72
2021/11/13 00:07:17;;;;;;;17.23;12.30;;;7.70;99.90;;;;;;4998342;28;20691;-73
2021/11/13 00:09:43;;;;;;;17.00;11.60;;;7.70;99.90;;;;;;4999248;28;20777;-73
2021/11/13 00:12:09;;;;;;;15.47;12.30;;;7.80;99.90;;;;;;5000170;28;20483;-72
2021/11/13 00:14:35;;;;;;;12.17;10.50;;;7.80;99.90;;;;;;4999551;28;20184;-72
2021/11/13 00:17:00;;;;;;;15.50;11.00;;;7.90;99.90;;;;;;4998950;28;20211;-72
2021/11/13 00:19:26;;;;;;;14.60;12.43;;;7.90;99.90;;;;;;5001035;28;20510;-73
2021/11/13 00:21:52;;;;;;;14.33;10.90;;;7.80;99.90;;;;;;5019548;28;20176;-73
2021/11/13 00:24:18;;;;;;;13.70;11.73;;;7.90;99.90;;;;;;5019459;28;20194;-72
2021/11/13 00:26:43;;;;;;;14.67;11.80;;;7.90;99.90;;;;;;5017698;28;20200;-72
2021/11/13 00:29:09;;;;;;;16.40;11.10;;;7.90;99.90;;;;;;5018474;28;20945;-73
2021/11/13 00:31:35;;;;;;;13.80;11.23;;;7.90;99.90;;;;;;5014438;28;20180;-73
2021/11/13 00:34:01;;;;;;;14.70;11.37;;;7.70;99.90;;;;;;5016769;28;20187;-73
2021/11/13 00:36:27;;;;;;;17.07;11.00;;;7.50;99.90;;;;;;5028903;28;20910;-73
2021/11/13 00:38:53;;;;;;;12.87;10.40;;;7.50;99.90;;;;;;5028325;28;20195;-73
2021/11/13 00:41:19;;;;;;;12.73;10.73;;;7.50;99.90;;;;;;5015525;28;20427;-73
2021/11/13 00:43:45;;;;;;;13.10;10.57;;;7.50;99.90;;;;;;4998254;28;20542;-73
2021/11/13 00:46:11;;;;;;;13.90;10.73;;;7.60;99.90;;;;;;4999025;28;20454;-73
2021/11/13 00:48:36;;;;;;;15.53;11.53;;;7.70;99.90;;;;;;4999025;28;20470;-72
2021/11/13 00:51:03;;;;;;;13.93;10.90;;;7.70;99.90;;;;;;4997765;28;20251;-72
2021/11/13 00:53:28;;;;;;;14.43;11.37;;;7.70;99.90;;;;;;4999481;28;20184;-73
2021/11/13 00:55:54;;;;;;;16.27;10.97;;;7.60;99.90;;;;;;4997277;28;20517;-73
2021/11/13 00:58:20;;;;;;;13.83;10.53;;;7.60;99.90;;;;;;4999664;28;20637;-72
2021/11/13 01:00:46;;;;;;;14.40;10.80;;;7.60;99.90;;;;;;4999426;28;20191;-72
2021/11/13 01:03:11;;;;;;;15.57;11.57;;;7.60;99.90;;;;;;5000344;28;20187;-72
2021/11/13 01:05:37;;;;;;;12.93;11.33;;;7.60;99.90;;;;;;4998048;28;20172;-72
2021/11/13 01:08:03;;;;;;;14.20;10.30;;;7.60;99.90;;;;;;4999641;28;20168;-73
2021/11/13 01:10:28;;;;;;;13.43;10.67;;;7.70;99.90;;;;;;5000016;28;20278;-72
2021/11/13 01:12:54;;;;;;;14.27;9.97;;;7.80;99.90;;;;;;5004004;28;20507;-73
2021/11/13 01:15:21;;;;;;;11.47;10.00;;;7.80;99.90;;;;;;5002509;28;20172;-73
2021/11/13 01:17:46;;;;;;;12.10;10.47;;;7.80;99.90;;;;;;5003352;28;20490;-73
2021/11/13 01:20:14;;;;;;;13.17;11.07;;;7.80;99.90;;;;;;5001337;28;21092;-72
2021/11/13 01:22:40;;;;;;;11.43;9.60;;;7.80;99.90;;;;;;5003642;28;20624;-72
2021/11/13 01:25:07;;;;;;;13.17;9.97;;;7.90;99.90;;;;;;5016551;28;20423;-72
2021/11/13 01:27:33;;;;;;;13.63;10.67;;;8.00;99.90;;;;;;5026536;28;20444;-73
2021/11/13 01:29:58;;;;;;;14.30;10.17;;;8.00;99.90;;;;;;5034482;28;20477;-73
2021/11/13 01:32:24;;;;;;;13.30;10.60;;;8.10;99.90;;;;;;5030950;28;20243;-73
2021/11/13 01:34:51;;;;;;;14.30;11.20;;;8.10;99.90;;;;;;5001742;28;20679;-72
2021/11/13 01:37:16;;;;;;;14.57;10.50;;;8.10;99.90;;;;;;5001785;28;20217;-73
2021/11/13 01:39:42;;;;;;;13.63;10.60;;;8.10;99.90;;;;;;5001624;28;20412;-73
2021/11/13 01:42:08;;;;;;;14.07;10.40;;;8.20;99.90;;;;;;5002098;28;20543;-72
2021/11/13 01:44:34;;;;;;;12.13;9.70;;;8.20;99.90;;;;;;5017754;28;20175;-72
2021/11/13 01:47:00;;;;;;;13.30;10.33;;;8.20;99.90;;;;;;5021703;28;20653;-72
2021/11/13 01:49:26;;;;;;;12.87;9.40;;;8.30;99.90;;;;;;5021083;28;20646;-72
2021/11/13 01:51:52;;;;;;;13.43;10.20;;;8.30;99.90;;;;;;5022309;28;20434;-73
2021/11/13 01:54:19;;;;;;;10.80;9.43;;;8.30;99.90;;;;;;5021696;28;20179;-72
2021/11/13 01:56:47;;;;;;;13.63;10.70;;;8.40;99.90;;;;;;5022747;28;20450;-73
2021/11/13 01:59:13;;;;;;;12.80;10.30;;;8.40;99.90;;;;;;5023387;28;20529;-72
2021/11/13 02:01:39;;;;;;;12.13;10.50;;;8.40;99.90;;;;;;5023163;28;20413;-72
2021/11/13 02:04:05;;;;;;;14.17;10.87;;;8.40;99.90;;;;;;5020901;28;20172;-73
2021/11/13 02:06:31;;;;;;;11.93;9.07;;;8.40;99.90;;;;;;5021071;28;20518;-73
2021/11/13 02:08:57;;;;;;;10.10;9.00;;;8.40;99.90;;;;;;5022706;28;20428;-72
2021/11/13 02:11:26;;;;;;;13.40;10.03;;;8.50;99.90;;;;;;5022381;28;20411;-73
2021/11/13 02:13:53;;;;;;;11.70;10.10;;;8.40;99.90;;;;;;5022762;28;20183;-74
2021/11/13 02:16:19;;;;;;;13.07;10.27;;;8.40;99.90;;;;;;5020111;28;20521;-73
2021/11/13 02:18:45;;;;;;;14.40;10.07;;;8.40;99.90;;;;;;5022276;28;20415;-71
2021/11/13 02:21:11;;;;;;;12.47;10.43;;;8.40;99.90;;;;;;5021031;28;20674;-73
2021/11/13 02:23:38;;;;;;;12.60;10.00;;;8.40;99.90;;;;;;5022517;28;20176;-73
2021/11/13 02:26:04;;;;;;;12.80;10.23;;;8.50;99.90;;;;;;5019927;28;20939;-73
2021/11/13 02:28:35;;;;;;;13.73;10.50;;;8.50;99.90;;;;;;5021519;28;20418;-73
2021/11/13 02:31:03;;;;;;;13.37;10.47;;;8.50;99.90;;;;;;5021978;28;20428;-73
2021/11/13 02:33:28;;;;;;;15.40;10.63;;;8.50;99.90;;;;;;5022353;28;20414;-73
2021/11/13 02:35:54;;;;;;;14.20;11.23;;;8.50;99.90;;;;;;5016901;28;20447;-72
2021/11/13 02:38:29;;;;;;;12.87;10.03;;;8.50;99.90;;;;;;5002596;28;20625;-72
2021/11/13 02:40:58;;;;;;;13.53;10.60;;;8.50;99.90;;;;;;5002274;28;20149;-73
2021/11/13 02:43:26;;;;;;;12.90;10.37;;;8.50;99.90;;;;;;5001919;28;20934;-71
2021/11/13 02:45:54;;;;;;;12.63;10.97;;;8.50;99.90;;;;;;5001402;28;20527;-72
2021/11/13 02:48:22;;;;;;;15.37;10.80;;;8.50;99.90;;;;;;5002277;28;20410;-73
2021/11/13 02:50:48;;;;;;;22.50;10.40;;;8.50;99.90;;;;;;4983762;28;20415;-72
2021/11/13 02:53:23;;;;;;;11.80;10.00;;;8.50;99.90;;;;;;5003005;28;20427;-73
2021/11/13 02:55:51;;;;;;;12.93;10.33;;;8.50;99.90;;;;;;5001310;28;20192;-73
2021/11/13 02:58:17;;;;;;;16.43;11.97;;;8.50;99.90;;;;;;5001708;28;21019;-73
2021/11/13 03:00:44;;;;;;;14.10;9.93;;;8.50;99.90;;;;;;5002358;28;20414;-73
2021/11/13 03:03:18;;;;;;;14.20;10.00;;;8.50;99.90;;;;;;5002209;28;20423;-73
2021/11/13 03:05:52;;;;;;;15.27;10.33;;;8.50;99.90;;;;;;4982232;28;20447;-74
2021/11/13 03:08:24;;;;;;;11.37;9.83;;;8.50;99.90;;;;;;5001154;28;20423;-74
2021/11/13 03:10:49;;;;;;;13.30;10.90;;;8.50;99.90;;;;;;5001981;28;20406;-72
2021/11/13 03:13:18;;;;;;;15.80;10.47;;;8.60;99.90;;;;;;5002248;28;20513;-73
2021/11/13 03:15:44;;;;;;;14.63;11.27;;;8.60;99.90;;;;;;5000448;28;20228;-74
2021/11/13 03:18:09;;;;;;;16.80;10.93;;;8.60;99.90;;;;;;5001712;28;20410;-73
2021/11/13 03:20:35;;;;;;;15.57;11.23;;;8.60;99.90;;;;;;5000777;28;20168;-73
2021/11/13 03:23:01;;;;;;;16.63;11.60;;;8.60;99.90;;;;;;4982958;28;20276;-74
2021/11/13 03:25:38;;;;;;;22.33;12.50;;;8.50;99.90;;;;;;5017831;28;20187;-72
2021/11/13 03:28:08;;;;;;;15.97;11.60;;;8.50;99.90;;;;;;5030356;28;20423;-73
2021/11/13 03:30:35;;;;;;;15.13;11.40;;;8.40;99.90;;;;;;5020645;28;20418;-74
2021/11/13 03:33:00;;;;;;;18.10;12.60;;;8.30;99.90;;;;;;5023857;28;20435;-73
2021/11/13 03:35:30;;;;;;;14.47;11.17;;;8.30;99.90;;;;;;5015161;28;20431;-74
2021/11/13 03:38:16;;;;;;;17.60;11.70;;;8.30;99.90;;;;;;5000837;28;20273;-73
2021/11/13 03:40:44;;;;;;;14.37;11.90;;;8.40;99.90;;;;;;5001328;28;20419;-74
2021/11/13 03:43:10;;;;;;;16.40;12.20;;;8.40;99.90;;;;;;4999462;28;20427;-73
2021/11/13 03:45:37;;;;;;;17.60;11.20;;;8.40;99.90;;;;;;5001331;28;20423;-73
2021/11/13 03:48:03;;;;;;;15.17;12.10;;;8.40;99.90;;;;;;5000428;28;20530;-73
2021/11/13 03:50:30;;;;;;;16.40;12.13;;;8.40;99.90;;;;;;5000412;28;20423;-73
2021/11/13 03:52:56;;;;;;;16.30;12.47;;;8.40;99.90;;;;;;5001279;28;20418;-73
2021/11/13 03:55:23;;;;;;;13.37;11.30;;;8.40;99.90;;;;;;5001084;28;20426;-72
2021/11/13 03:57:49;;;;;;;16.20;12.03;;;8.40;99.90;;;;;;5019809;28;20447;-72
2021/11/13 04:00:16;;;;;;;17.90;12.90;;;8.30;99.90;;;;;;5019689;28;20413;-72
2021/11/13 04:02:44;;;;;;;14.77;12.27;;;8.20;99.90;;;;;;5020497;28;20437;-73
2021/11/13 04:05:10;;;;;;;18.97;13.40;;;8.20;99.90;;;;;;5020628;28;20418;-72
2021/11/13 04:07:36;;;;;;;17.50;12.63;;;8.30;99.90;;;;;;5016607;28;21123;-73
2021/11/13 04:10:04;;;;;;;16.00;12.77;;;8.30;99.90;;;;;;5019813;28;20425;-73
2021/11/13 04:12:30;;;;;;;16.03;12.03;;;8.20;99.90;;;;;;5020004;28;20177;-73
2021/11/13 04:14:56;;;;;;;15.17;12.23;;;8.30;99.90;;;;;;5019807;28;20414;-74
2021/11/13 04:17:22;;;;;;;16.53;13.13;;;8.30;99.90;;;;;;5019248;28;20543;-73
2021/11/13 04:19:47;;;;;;;16.63;12.27;;;8.30;99.90;;;;;;5020509;28;20175;-72
2021/11/13 04:22:13;;;;;;;18.90;12.57;;;8.30;99.90;;;;;;5013708;28;20184;-73
2021/11/13 04:24:38;;;;;;;16.30;11.70;;;8.30;99.90;;;;;;5000416;28;20234;-72
2021/11/13 04:27:04;;;;;;;13.60;10.60;;;8.30;99.90;;;;;;5016523;28;20206;-73
2021/11/13 04:29:30;;;;;;;15.10;11.60;;;8.30;99.90;;;;;;5024245;28;20192;-73
2021/11/13 04:31:55;;;;;;;14.33;11.43;;;8.30;99.90;;;;;;5032207;28;20185;-73
2021/11/13 04:34:23;;;;;;;15.60;11.17;;;8.30;99.90;;;;;;5039372;28;20179;-73
2021/11/13 04:36:53;;;;;;;14.43;11.20;;;8.30;99.90;;;;;;5022223;28;20214;-73
2021/11/13 04:39:21;;;;;;;13.80;10.87;;;8.30;99.90;;;;;;5037145;28;20414;-73
2021/11/13 04:41:48;;;;;;;12.87;11.03;;;8.40;99.90;;;;;;5007132;28;20418;-73
2021/11/13 04:44:14;;;;;;;13.70;11.67;;;8.40;99.90;;;;;;5019915;28;20493;-73
2021/11/13 04:46:39;;;;;;;13.17;9.93;;;8.40;99.90;;;;;;5019466;28;20484;-72
2021/11/13 04:49:05;;;;;;;14.60;11.13;;;8.40;99.90;;;;;;5022586;28;20643;-73
2021/11/13 04:51:31;;;;;;;12.10;9.43;;;8.40;99.90;;;;;;5020233;28;20210;-72
2021/11/13 04:53:57;;;;;;;12.87;10.73;;;8.40;99.90;;;;;;5022006;28;20422;-73
2021/11/13 04:56:22;;;;;;;13.33;10.77;;;8.40;99.90;;;;;;5022347;28;20207;-74
2021/11/13 04:58:48;;;;;;;12.90;10.80;;;8.40;99.90;;;;;;5022418;28;20230;-73
2021/11/13 05:01:13;;;;;;;14.47;11.27;;;8.40;99.90;;;;;;5022328;28;20629;-73
2021/11/13 05:03:39;;;;;;;12.67;9.70;;;8.40;99.90;;;;;;5020681;28;20554;-73
2021/11/13 05:06:05;;;;;;;10.87;9.40;;;8.40;99.90;;;;;;5022046;28;20199;-74
2021/11/13 05:08:31;;;;;;;11.73;9.67;;;8.40;99.90;;;;;;5021546;28;20181;-72
2021/11/13 05:10:56;;;;;;;12.13;9.13;;;8.40;99.90;;;;;;5022595;28;20184;-73
2021/11/13 05:13:22;;;;;;;11.60;8.90;;;8.40;99.90;;;;;;5020808;28;20223;-73
2021/11/13 05:15:47;;;;;;;9.47;8.40;;;8.30;99.90;;;;;;5022730;28;20279;-73
2021/11/13 05:18:13;;;;;;;11.53;8.83;;;8.40;99.90;;;;;;5021678;28;20179;-73
2021/11/13 05:20:39;;;;;;;9.03;8.13;;;8.40;99.90;;;;;;5021681;28;20175;-73
2021/11/13 05:23:05;;;;;;;9.90;8.77;;;8.30;99.90;;;;;;5019741;28;20460;-74
2021/11/13 05:25:31;;;;;;;11.43;9.20;;;8.40;99.90;;;;;;5020319;28;20425;-73
2021/11/13 05:27:57;;;;;;;11.03;8.77;;;8.40;99.90;;;;;;5022184;28;21009;-73
2021/11/13 05:30:24;;;;;;;11.03;9.33;;;8.30;99.90;;;;;;5022262;28;20821;-73
2021/11/13 05:32:51;;;;;;;12.10;9.00;;;8.30;99.90;;;;;;5022192;28;20176;-74
2021/11/13 05:35:18;;;;;;;10.77;9.10;;;8.20;99.90;;;;;;5019662;28;20923;-72
2021/11/13 05:37:45;;;;;;;12.57;9.70;;;8.20;99.90;;;;;;5022585;28;20465;-72
2021/11/13 05:40:11;;;;;;;10.90;9.80;;;8.30;99.90;;;;;;5022433;28;20421;-74
2021/11/13 05:42:38;;;;;;;12.00;10.20;;;8.20;99.90;;;;;;5022284;28;20426;-73
2021/11/13 05:45:05;;;;;;;11.93;9.10;;;8.20;99.90;;;;;;5021483;28;20838;-72
2021/11/13 05:47:31;;;;;;;10.63;9.47;;;8.10;99.90;;;;;;5049394;23;20491;-72
2021/11/13 05:49:57;;;;;;;10.50;8.50;;;8.10;99.90;;;;;;5033730;28;20434;-72
2021/11/13 05:52:23;;;;;;;12.97;9.80;;;8.10;99.90;;;;;;5034416;28;20410;-72
2021/11/13 05:54:49;;;;;;;13.97;10.83;;;8.00;99.90;;;;;;5024011;28;20183;-71
2021/11/13 05:57:14;;;;;;;15.00;11.60;;;7.90;99.90;;;;;;5017761;28;20211;-70
2021/11/13 05:59:40;;;;;;;16.70;12.53;;;7.70;99.90;;;;;;5013632;28;20430;-71
2021/11/13 06:02:06;;;;;;;14.97;11.93;;;7.70;99.90;;;;;;5029163;28;20286;-71
2021/11/13 06:04:32;;;;;;;13.03;11.03;;;7.60;99.90;;;;;;5013251;28;20430;-71
2021/11/13 06:06:59;;;;;;;13.53;10.70;;;7.60;99.90;;;;;;5005977;28;20911;-71
2021/11/13 06:09:25;;;;;;;12.77;10.63;;;7.60;99.90;;;;;;5011893;28;20567;-70
2021/11/13 06:11:50;;;;;;;12.87;9.97;;;7.60;99.90;;;;;;5012182;28;20430;-71
2021/11/13 06:14:16;;;;;;;12.57;9.70;;;7.70;99.90;;;;;;5012402;28;20180;-71
2021/11/13 06:16:41;;;;;;;11.03;9.37;;;7.70;99.90;;;;;;5012991;28;20634;-73
2021/11/13 06:19:07;;;;;;;14.73;11.47;;;7.70;99.90;;;;;;5000628;28;20169;-71
2021/11/13 06:21:32;;;;;;;12.70;9.30;;;7.60;99.90;;;;;;5013091;28;20194;-70
2021/11/13 06:23:58;;;;;;;14.03;10.73;;;7.60;99.90;;;;;;5013425;28;20214;-70
2021/11/13 06:26:23;;;;;;;13.13;10.00;;;7.70;99.90;;;;;;5012697;28;20200;-70
2021/11/13 06:28:49;;;;;;;14.20;10.50;;;7.70;99.90;;;;;;5011223;28;20222;-70
2021/11/13 06:31:14;;;;;;;15.00;10.80;;;7.70;99.90;;;;;;5013121;28;20175;-72
2021/11/13 06:33:40;;;;;;;14.57;10.30;;;7.80;99.90;;;;;;5013498;28;20204;-70
2021/11/13 06:36:06;;;;;;;12.70;10.03;;;7.80;99.90;;;;;;5009530;28;20231;-70
2021/11/13 06:38:33;;;;;;;22.00;11.80;;;7.70;99.90;;;;;;5010080;28;20244;-70
2021/11/13 06:40:58;;;;;;;13.80;11.07;;;7.70;99.90;;;;;;5012448;28;20465;-70
2021/11/13 06:43:24;;;;;;;13.13;10.60;;;7.80;99.90;;;;;;5012843;28;20852;-70
2021/11/13 06:45:50;;;;;;;15.37;11.17;;;7.80;99.90;;;;;;5028192;28;20175;-70
2021/11/13 06:48:16;;;;;;;13.43;10.57;;;7.80;99.90;;;;;;5028710;28;20757;-72
2021/11/13 06:50:42;;;;;;;15.73;12.00;;;7.90;99.90;;;;;;5012549;28;20180;-71
2021/11/13 06:53:08;;;;;;;15.73;11.87;;;8.00;99.90;;;;;;5010610;28;20778;-70
2021/11/13 06:55:33;;;;;;;15.10;10.90;;;8.10;99.90;;;;;;5011085;28;20196;-70
2021/11/13 06:57:59;;;;;;;12.07;10.30;;;8.20;99.90;;;;;;5011244;28;20245;-70
2021/11/13 07:00:26;;;;;;;11.33;9.70;;;8.20;99.90;;;;;;5009987;28;20170;-71
2021/11/13 07:02:53;;;;;;;13.47;10.70;;;8.30;99.90;;;;;;5012731;28;20599;-70
2021/11/13 07:05:19;;;;;;;11.97;10.10;;;8.30;99.90;;;;;;5012261;28;20530;-70
2021/11/13 07:07:44;;;;;;;14.37;9.87;;;8.30;99.90;;;;;;5027378;28;20867;-70
2021/11/13 07:10:14;;;;;;;14.70;10.60;;;8.20;99.90;;;;;;5011824;28;20422;-69
2021/11/13 07:12:40;;;;;;;13.90;10.93;;;8.20;99.90;;;;;;5007916;28;20188;-69
2021/11/13 07:15:07;;;;;;;11.90;10.50;;;8.30;99.90;;;;;;5013802;28;20474;-71
2021/11/13 07:17:33;;;;;;;13.20;10.70;;;8.40;99.90;;;;;;5012520;28;20533;-69
2021/11/13 07:19:59;;;;;;;13.17;10.20;;;8.50;99.90;;;;;;5012751;28;20536;-69
2021/11/13 07:22:25;;;;;;;13.20;10.27;;;8.50;99.90;;;;;;5010512;28;20199;-70
2021/11/13 07:24:51;;;;;;;13.20;10.80;;;8.50;99.90;;;;;;5011825;28;20216;-70
2021/11/13 07:27:16;;;;;;;12.63;10.90;;;8.60;99.90;;;;;;5011495;28;20446;-71
2021/11/13 07:29:47;;;;;;;13.63;10.30;;;8.50;99.90;;;;;;5012339;28;20476;-70
2021/11/13 07:32:15;;;;;;;14.10;10.50;;;8.50;99.90;;;;;;5024746;28;20183;-71
2021/11/13 07:34:42;;;;;;;12.20;10.20;;;8.60;99.90;;;;;;5011658;28;20426;-70
2021/11/13 07:37:09;;;;;;;13.10;10.10;;;8.60;99.90;;;;;;5011966;28;20470;-70
2021/11/13 07:39:35;;;;;;;13.30;10.80;;;8.60;99.90;;;;;;5009581;28;20453;-71
2021/11/13 07:42:01;;;;;;;11.60;10.20;;;8.70;99.90;;;;;;5012817;28;20946;-70
2021/11/13 07:44:26;;;;;;;13.20;10.23;;;8.60;99.90;;;;;;5010429;28;20179;-70
2021/11/13 07:46:55;;;;;;;14.10;10.53;;;8.70;99.90;;;;;;5012032;28;20215;-70
2021/11/13 07:49:20;;;;;;;11.03;9.50;;;8.70;99.90;;;;;;5012526;28;20257;-69
2021/11/13 07:51:46;;;;;;;15.60;11.00;;;8.70;99.90;;;;;;5012585;28;20459;-69
2021/11/13 07:54:11;;;;;;;11.43;10.10;;;8.70;99.90;;;;;;5003116;28;20237;-70
2021/11/13 07:56:37;;;;;;;11.23;9.73;;;8.70;99.90;;;;;;4992594;28;20269;-70
2021/11/13 07:59:03;;;;;;;12.40;10.47;;;8.70;99.90;;;;;;4993199;28;20208;-73
2021/11/13 08:01:29;;;;;;;11.10;9.30;;;8.70;99.90;;;;;;4992704;28;20180;-72
2021/11/13 08:03:54;;;;;;;13.00;9.23;;;8.80;99.90;;;;;;4993574;28;20407;-71
2021/11/13 08:06:20;;;;;;;10.70;8.90;;;8.90;99.90;;;;;;4992336;28;20435;-72
2021/11/13 08:08:46;;;;;;;11.77;9.13;;;8.90;99.90;;;;;;4992733;28;20188;-73
2021/11/13 08:11:11;;;;;;;11.77;9.53;;;8.80;99.90;;;;;;4992585;28;20180;-73
2021/11/13 08:13:39;;;;;;;10.40;8.23;;;8.90;99.90;;;;;;4990938;28;20231;-73
2021/11/13 08:16:06;;;;;;;11.90;8.97;;;9.00;99.90;;;;;;4993123;28;20219;-73
2021/11/13 08:18:32;;;;;;;12.17;8.97;;;9.00;99.90;;;;;;4994235;28;20477;-71
2021/11/13 08:20:59;;;;;;;9.93;8.93;;;9.10;99.90;;;;;;5025167;28;20828;-74
2021/11/13 08:23:25;;;;;;;11.73;8.80;;;9.10;99.90;;;;;;5045811;28;20873;-73
2021/11/13 08:25:52;;;;;;;10.40;8.57;;;9.10;99.90;;;;;;5016736;28;20553;-71
2021/11/13 08:28:19;;;;;;;9.90;8.37;;;9.10;99.90;;;;;;5024305;28;20825;-74
2021/11/13 08:30:45;;;;;;;11.37;8.10;;;9.10;99.90;;;;;;5030759;28;20457;-73
2021/11/13 08:33:12;;;;;;;9.07;7.47;;;9.10;99.90;;;;;;5026383;28;20464;-72
2021/11/13 08:35:39;;;;;;;8.03;7.23;;;9.10;99.90;;;;;;5017110;28;21141;-72
2021/11/13 08:38:05;;;;;;;9.63;7.57;;;9.10;99.90;;;;;;5012393;28;20519;-73
2021/11/13 08:40:31;;;;;;;7.83;6.80;;;9.10;99.90;;;;;;5011050;28;20448;-72
2021/11/13 08:42:57;;;;;;;7.50;6.40;;;9.10;99.90;;;;;;5008768;28;20466;-73
2021/11/13 08:45:23;;;;;;;7.17;6.47;;;9.10;99.90;;;;;;5009495;28;20449;-72
2021/11/13 08:47:49;;;;;;;7.07;5.87;;;9.20;99.90;;;;;;5008462;28;20488;-73
2021/11/13 08:50:19;;;;;;;7.70;6.57;;;9.30;99.90;;;;;;5010726;28;20216;-73
2021/11/13 08:52:48;;;;;;;7.10;5.97;;;9.30;99.90;;;;;;5001968;28;20508;-72
2021/11/13 08:55:15;;;;;;;8.77;6.93;;;9.40;99.90;;;;;;5009670;28;20446;-73
2021/11/13 08:57:45;;;;;;;8.10;6.20;;;9.40;99.90;;;;;;5010581;28;20517;-72
2021/11/13 09:00:14;;;;;;;6.83;6.00;;;9.50;99.90;;;;;;5011416;28;20957;-73
2021/11/13 09:02:41;;;;;;;6.50;5.90;;;9.50;99.90;;;;;;5010156;28;20481;-72
2021/11/13 09:05:08;;;;;;;6.43;5.83;;;9.50;99.90;;;;;;5007600;28;20472;-72
2021/11/13 09:07:37;;;;;;;6.47;5.63;;;9.60;99.90;;;;;;5010941;28;20480;-72
2021/11/13 09:10:04;;;;;;;7.07;5.67;;;9.60;99.90;;;;;;5011343;28;20855;-71
2021/11/13 09:12:31;;;;;;;8.30;5.93;;;9.70;99.90;;;;;;5024193;28;20494;-72
2021/11/13 09:15:03;;;;;;;6.23;5.60;;;9.80;99.90;;;;;;5005979;28;20455;-71
2021/11/13 09:17:30;;;;;;;6.50;5.90;;;9.90;99.90;;;;;;5010407;28;20494;-71
2021/11/13 09:19:55;;;;;;;6.77;6.10;;;9.80;99.90;;;;;;5008603;28;20533;-72
2021/11/13 09:22:21;;;;;;;7.33;5.70;;;9.80;99.90;;;;;;5010184;28;20549;-72
2021/11/13 09:24:47;;;;;;;7.20;6.50;;;9.90;99.90;;;;;;5024698;28;20354;-72
2021/11/13 09:27:13;;;;;;;6.93;6.33;;;9.90;99.90;;;;;;5009203;28;20230;-73
2021/11/13 09:29:39;;;;;;;8.70;7.03;;;9.90;99.90;;;;;;5010417;28;20551;-72
2021/11/13 09:32:05;;;;;;;7.23;6.40;;;9.90;99.90;;;;;;5010840;28;20437;-73
2021/11/13 09:34:31;;;;;;;7.27;6.57;;;9.90;99.90;;;;;;5013584;28;20207;-72
2021/11/13 09:36:57;;;;;;;7.20;6.50;;;10.00;99.90;;;;;;5014392;28;20466;-72
2021/11/13 09:39:22;;;;;;;8.03;7.10;;;10.00;99.90;;;;;;5014393;28;20226;-72
2021/11/13 09:41:49;;;;;;;7.30;6.60;;;10.00;99.90;;;;;;5013343;28;20636;-73
2021/11/13 09:44:18;;;;;;;8.10;7.30;;;10.00;99.90;;;;;;5011051;28;20293;-72
2021/11/13 09:46:45;;;;;;;7.33;6.47;;;10.10;99.90;;;;;;5011242;28;20473;-72
2021/11/13 09:49:11;;;;;;;7.53;6.73;;;10.10;99.90;;;;;;5012272;28;20473;-72
2021/11/13 09:51:37;;;;;;;8.17;7.37;;;10.20;99.90;;;;;;5011114;28;20446;-72
2021/11/13 09:54:03;;;;;;;7.90;6.93;;;10.20;99.90;;;;;;5013052;28;20223;-73
2021/11/13 09:56:30;;;;;;;8.20;7.00;;;10.20;99.90;;;;;;5028289;28;20827;-72
2021/11/13 09:58:55;;;;;;;7.57;6.37;;;10.30;99.90;;;;;;5013490;28;20825;-71
2021/11/13 10:01:21;;;;;;;6.80;6.10;;;10.30;99.90;;;;;;5013389;28;20453;-73
2021/11/13 10:03:47;;;;;;;10.30;6.60;;;10.40;99.90;;;;;;5010381;28;20310;-72
2021/11/13 10:06:15;;;;;;;7.70;6.93;;;10.40;99.90;;;;;;5011736;28;20203;-72
2021/11/13 10:08:44;;;;;;;7.20;6.50;;;10.40;99.90;;;;;;5013104;28;20458;-72
2021/11/13 10:11:14;;;;;;;7.80;6.77;;;10.30;99.90;;;;;;5013816;28;20447;-71
2021/11/13 10:13:50;;;;;;;6.60;6.00;;;10.30;99.90;;;;;;5013610;28;20450;-71
2021/11/13 10:16:33;;;;;;;6.97;6.27;;;10.40;99.90;;;;;;5012615;28;20454;-72
2021/11/13 10:19:13;;;;;;;8.40;7.60;;;10.30;99.90;;;;;;5011145;28;20453;-73
2021/11/13 10:21:41;;;;;;;9.10;8.20;;;10.20;99.90;;;;;;5012706;28;20576;-71
2021/11/13 10:24:21;;;;;;;9.60;8.70;;;10.20;99.90;;;;;;5013700;28;20439;-72
2021/11/13 10:26:52;;;;;;;9.17;8.33;;;10.20;99.90;;;;;;5012764;28;20430;-72
2021/11/13 10:29:21;;;;;;;8.13;7.43;;;10.20;99.90;;;;;;5011723;28;20608;-73
2021/11/13 10:31:56;;;;;;;8.50;7.80;;;10.20;99.90;;;;;;5010650;28;20438;-72
2021/11/13 10:34:23;;;;;;;9.70;8.80;;;10.20;99.90;;;;;;5010624;28;20470;-75
2021/11/13 10:36:51;;;;;;;8.53;7.73;;;10.20;99.90;;;;;;5010853;28;20501;-73
2021/11/13 10:39:22;;;;;;;10.33;8.10;;;10.20;99.90;;;;;;5025527;28;20466;-72
2021/11/13 10:41:50;;;;;;;9.73;8.73;;;10.20;99.90;;;;;;5012438;28;20778;-73
2021/11/13 10:44:32;;;;;;;8.10;7.40;;;10.20;99.90;;;;;;5016075;28;20862;-74
2021/11/13 10:47:01;;;;;;;8.40;7.13;;;10.20;99.90;;;;;;5013467;28;20473;-73
2021/11/13 10:49:28;;;;;;;8.90;8.10;;;10.20;99.90;;;;;;5021166;28;20453;-73
2021/11/13 10:51:59;;;;;;;8.40;7.60;;;10.30;99.90;;;;;;5012840;28;20508;-72
2021/11/13 10:54:26;;;;;;;8.23;7.53;;;10.30;99.90;;;;;;5010662;28;20482;-73
2021/11/13 10:56:58;;;;;;;8.30;7.60;;;10.40;99.90;;;;;;5003622;28;20474;-73
2021/11/13 10:59:29;;;;;;;8.67;7.77;;;10.40;99.90;;;;;;5001761;28;20552;-74
2021/11/13 11:02:01;;;;;;;8.50;7.70;;;10.40;99.90;;;;;;5024423;28;20455;-73
2021/11/13 11:04:31;;;;;;;9.27;8.43;;;10.50;99.90;;;;;;5007632;28;20471;-73
2021/11/13 11:07:12;;;;;;;8.43;7.63;;;10.50;99.90;;;;;;5007687;28;20450;-73
2021/11/13 11:09:43;;;;;;;8.77;7.97;;;10.60;99.90;;;;;;5007893;28;20920;-73
2021/11/13 11:12:21;;;;;;;8.70;7.90;;;10.60;99.90;;;;;;5008097;28;20487;-74
2021/11/13 11:14:50;;;;;;;9.00;8.20;;;10.60;99.90;;;;;;5004150;28;20472;-73
2021/11/13 11:17:18;;;;;;;8.67;7.87;;;10.70;99.90;;;;;;5006987;28;20483;-73
2021/11/13 11:19:47;;;;;;;8.80;8.00;;;10.70;99.90;;;;;;5008164;28;20454;-73
2021/11/13 11:22:21;;;;;;;8.40;7.67;;;10.70;99.90;;;;;;5015882;28;20454;-74
2021/11/13 11:24:51;;;;;;;8.83;8.03;;;10.80;99.90;;;;;;5008050;28;20470;-73
2021/11/13 11:27:23;;;;;;;9.37;8.57;;;10.80;99.90;;;;;;5007000;28;20460;-74
2021/11/13 11:29:56;;;;;;;9.43;8.43;;;10.80;99.90;;;;;;5007129;28;20913;-73
2021/11/13 11:32:26;;;;;;;9.33;8.43;;;10.80;99.90;;;;;;5004694;28;20969;-75
2021/11/13 11:34:53;;;;;;;9.53;8.53;;;10.80;99.90;;;;;;5007895;28;20441;-74
2021/11/13 11:37:34;;;;;;;10.23;9.33;;;10.80;99.90;;;;;;5007729;28;20472;-73
2021/11/13 11:40:06;;;;;;;9.77;8.70;;;10.70;99.90;;;;;;5008009;28;20425;-73
2021/11/13 11:42:31;;;;;;;9.37;8.33;;;10.70;99.90;;;;;;5026510;28;20418;-73
2021/11/13 11:44:59;;;;;;;10.23;9.37;;;10.70;99.90;;;;;;5011146;28;20441;-73
2021/11/13 11:47:29;;;;;;;9.33;8.47;;;10.70;99.90;;;;;;5011889;28;20730;-73
2021/11/13 11:49:57;;;;;;;9.37;8.47;;;10.60;99.90;;;;;;5009283;28;20448;-75
2021/11/13 11:52:25;;;;;;;8.97;8.10;;;10.60;99.90;;;;;;5010232;28;20422;-72
2021/11/13 11:54:52;;;;;;;8.97;8.10;;;10.70;99.90;;;;;;5011750;28;20467;-74
2021/11/13 11:57:22;;;;;;;10.70;9.60;;;10.60;99.90;;;;;;5048529;22;20497;-71
2021/11/13 11:59:49;;;;;;;10.10;9.20;;;10.50;99.90;;;;;;5028234;28;20961;-72
2021/11/13 12:02:19;;;;;;;9.90;9.00;;;10.30;99.90;;;;;;5024012;28;20499;-73
2021/11/13 12:04:47;;;;;;;10.47;9.57;;;10.30;99.90;;;;;;5028149;28;20447;-72
2021/11/13 12:07:31;;;;;;;10.50;9.50;;;10.20;99.90;;;;;;5007165;28;20473;-73
2021/11/13 12:10:27;;;;;;;10.20;9.20;;;10.30;99.90;;;;;;5006132;28;20418;-73
2021/11/13 12:13:14;;;;;;;9.93;8.93;;;10.40;99.90;;;;;;5008738;28;20512;-71
2021/11/13 12:15:50;;;;;;;9.07;8.13;;;10.40;99.90;;;;;;5008865;28;20425;-72
2021/11/13 12:18:27;;;;;;;9.73;8.73;;;10.30;99.90;;;;;;5008554;28;20462;-72
2021/11/13 12:21:12;;;;;;;7.90;7.10;;;10.20;99.90;;;;;;5008867;28;20464;-72
2021/11/13 12:23:40;;;;;;;7.90;7.20;;;10.00;99.90;;;;;;5009521;28;20415;-74
2021/11/13 12:26:23;;;;;;;8.10;6.50;;;10.00;99.90;;;;;;4995708;28;20478;-73
2021/11/13 12:28:50;;;;;;;7.27;6.57;;;10.00;99.90;;;;;;5008328;28;20415;-71
2021/11/13 12:31:24;;;;;;;7.50;6.80;;;9.90;99.90;;;;;;5009009;28;20418;-71
2021/11/13 12:34:14;;;;;;;6.83;6.13;;;9.90;99.90;;;;;;5009323;28;20418;-71
2021/11/13 12:37:05;;;;;;;7.10;6.10;;;9.90;99.90;;;;;;5009516;28;20488;-71
2021/11/13 12:39:36;;;;;;;6.10;5.30;;;10.00;99.90;;;;;;5009238;28;20431;-72
2021/11/13 12:42:06;;;;;;;6.13;5.63;;;10.10;99.90;;;;;;5007734;28;20498;-71
2021/11/13 12:44:40;;;;;;;5.80;5.20;;;10.10;99.90;;;;;;4988754;28;20447;-72